createdAt,value
2024-03-12T00:00:58.189Z,43.7162
2024-03-12T00:01:59.949Z,44.0246
2024-03-12T00:03:01.779Z,43.9292
2024-03-12T00:04:03.726Z,44.2123
2024-03-12T00:05:05.465Z,44.0438
2024-03-12T00:06:07.271Z,44.0277
2024-03-12T00:07:09.220Z,44.2354
2024-03-12T00:08:10.941Z,44.2623
2024-03-12T00:09:12.776Z,44.4369
2024-03-12T00:10:14.601Z,44.4492
2024-03-12T00:11:16.492Z,44.4592
2024-03-12T00:12:18.273Z,44.5685
2024-03-12T00:13:20.114Z,44.6485
2024-03-12T00:14:21.988Z,44.7069
2024-03-12T00:15:23.853Z,44.7100
2024-03-12T00:16:25.635Z,44.8692
2024-03-12T00:17:27.563Z,44.8846
2024-03-12T00:18:29.311Z,44.9723
2024-03-12T00:19:31.141Z,44.9008
2024-03-12T00:20:32.946Z,45.0392
2024-03-12T00:21:34.858Z,45.0054
2024-03-12T00:22:36.614Z,45.0723
2024-03-12T00:23:38.480Z,45.2285
2024-03-12T00:24:40.291Z,45.1362
2024-03-12T00:25:42.202Z,45.2338
2024-03-12T00:26:46.470Z,45.2223
2024-03-12T00:27:45.834Z,45.2762
2024-03-12T00:28:47.678Z,45.4269
2024-03-12T00:29:49.518Z,45.3162
2024-03-12T00:30:51.344Z,45.4531
2024-03-12T00:31:53.178Z,45.5892
2024-03-12T00:32:55.006Z,45.4400
2024-03-12T00:33:56.914Z,45.5854
2024-03-12T00:34:58.637Z,45.5485
2024-03-12T00:36:00.549Z,45.6469
2024-03-12T00:37:02.406Z,45.6562
2024-03-12T00:38:04.167Z,45.7315
2024-03-12T00:39:05.974Z,45.9638
2024-03-12T00:40:07.937Z,45.7138
2024-03-12T00:41:09.672Z,45.8569
2024-03-12T00:42:11.502Z,46.0569
2024-03-12T00:43:13.486Z,45.9431
2024-03-12T00:44:15.211Z,45.9546
2024-03-12T00:45:17.081Z,46.0854
2024-03-12T00:46:18.966Z,46.0892
2024-03-12T00:47:20.687Z,46.0777
2024-03-12T00:48:22.585Z,46.0931
2024-03-12T00:49:24.362Z,46.1423
2024-03-12T00:50:26.219Z,46.2285
2024-03-12T00:51:28.078Z,46.2531
2024-03-12T00:52:29.888Z,46.4315
2024-03-12T00:53:31.746Z,46.4162
2024-03-12T00:54:33.589Z,46.3054
2024-03-12T00:55:35.411Z,46.4223
2024-03-12T00:56:37.241Z,46.4615
2024-03-12T00:57:39.066Z,46.5500
2024-03-12T00:58:40.898Z,46.5400
2024-03-12T00:59:42.728Z,46.5469
2024-03-12T01:00:44.704Z,46.5538
2024-03-12T01:01:46.408Z,46.7108
2024-03-12T01:02:48.267Z,46.6354
2024-03-12T01:03:50.075Z,46.6085
2024-03-12T01:04:51.916Z,46.7023
2024-03-12T01:05:53.737Z,46.8423
2024-03-12T01:06:55.623Z,46.8031
2024-03-12T01:07:57.412Z,46.8408
2024-03-12T01:08:59.292Z,46.8546
2024-03-12T01:10:01.180Z,46.9131
2024-03-12T01:11:03.021Z,46.8800
2024-03-12T01:12:04.788Z,47.0154
2024-03-12T01:13:06.639Z,46.9631
2024-03-12T01:14:08.429Z,46.9485
2024-03-12T01:15:10.292Z,47.0392
2024-03-12T01:16:12.100Z,47.0215
2024-03-12T01:17:13.954Z,47.1377
2024-03-12T01:18:15.824Z,47.0992
2024-03-12T01:19:17.635Z,47.2000
2024-03-12T01:20:19.444Z,47.2046
2024-03-12T01:21:21.286Z,47.2331
2024-03-12T01:22:23.106Z,47.2923
2024-03-12T01:23:24.975Z,47.2631
2024-03-12T01:24:26.797Z,47.3223
2024-03-12T01:25:28.639Z,47.3923
2024-03-12T01:26:30.461Z,47.3762
2024-03-12T01:27:32.310Z,47.4515
2024-03-12T01:28:34.108Z,47.4092
2024-03-12T01:29:35.989Z,47.4038
2024-03-12T01:30:38.441Z,47.5285
2024-03-12T01:31:39.649Z,47.5662
2024-03-12T01:32:41.461Z,47.5515
2024-03-12T01:33:43.384Z,47.5746
2024-03-12T01:34:45.118Z,47.6585
2024-03-12T01:35:46.976Z,47.6231
2024-03-12T01:36:48.820Z,47.7046
2024-03-12T01:37:50.643Z,47.7423
2024-03-12T01:38:52.458Z,47.7854
2024-03-12T01:39:54.303Z,47.8500
2024-03-12T01:40:56.117Z,47.8138
2024-03-12T01:41:57.974Z,47.8000
2024-03-12T01:42:59.825Z,47.8554
2024-03-12T01:44:01.623Z,48.0092
2024-03-12T01:45:03.424Z,47.9438
2024-03-12T01:46:05.427Z,47.9269
2024-03-12T01:47:07.108Z,48.0431
2024-03-12T01:48:10.327Z,48.0223
2024-03-12T01:49:10.856Z,47.9792
2024-03-12T01:50:12.616Z,48.0685
2024-03-12T01:51:14.429Z,48.0492
2024-03-12T01:52:16.272Z,48.1354
2024-03-12T01:53:18.111Z,48.0946
2024-03-12T01:54:19.952Z,48.1177
2024-03-12T01:55:21.775Z,48.2200
2024-03-12T01:56:23.624Z,48.2454
2024-03-12T01:57:25.479Z,48.2831
2024-03-12T01:58:27.288Z,48.3123
2024-03-12T01:59:29.120Z,48.3077
2024-03-12T02:00:30.986Z,48.3723
2024-03-12T02:01:32.872Z,48.3769
2024-03-12T02:02:34.653Z,48.3723
2024-03-12T02:03:36.473Z,48.4231
2024-03-12T02:04:38.332Z,48.4431
2024-03-12T02:05:40.130Z,48.4738
2024-03-12T02:06:41.994Z,48.5154
2024-03-12T02:07:43.793Z,48.4908
2024-03-12T02:08:45.708Z,48.5562
2024-03-12T02:09:47.495Z,48.5508
2024-03-12T02:10:49.329Z,48.6054
2024-03-12T02:11:51.138Z,48.5969
2024-03-12T02:12:53.084Z,48.6469
2024-03-12T02:13:54.812Z,48.6192
2024-03-12T02:14:56.696Z,48.6962
2024-03-12T02:15:58.521Z,48.7608
2024-03-12T02:17:00.322Z,48.7577
2024-03-12T02:18:02.177Z,48.7400
2024-03-12T02:19:04.017Z,48.7262
2024-03-12T02:20:05.825Z,48.7985
2024-03-12T02:21:07.670Z,48.8538
2024-03-12T02:22:09.576Z,48.9238
2024-03-12T02:23:11.334Z,48.8831
2024-03-12T02:24:13.148Z,48.9415
2024-03-12T02:25:15.002Z,49.0046
2024-03-12T02:26:16.823Z,48.9692
2024-03-12T02:27:18.688Z,49.0338
2024-03-12T02:28:20.481Z,49.1038
2024-03-12T02:29:22.341Z,49.0323
2024-03-12T02:30:24.360Z,49.0469
2024-03-12T02:31:26.044Z,49.1462
2024-03-12T02:32:27.876Z,49.1692
2024-03-12T02:33:29.708Z,49.1054
2024-03-12T02:34:31.547Z,49.0977
2024-03-12T02:35:33.403Z,49.1154
2024-03-12T02:36:35.183Z,49.2077
2024-03-12T02:37:37.025Z,49.2185
2024-03-12T02:38:38.832Z,49.2177
2024-03-12T02:39:40.748Z,49.2608
2024-03-12T02:40:42.495Z,49.2285
2024-03-12T02:41:44.356Z,49.2831
2024-03-12T02:42:46.374Z,49.3592
2024-03-12T02:43:48.034Z,49.3362
2024-03-12T02:44:49.851Z,49.4323
2024-03-12T02:45:51.772Z,49.3715
2024-03-12T02:46:53.496Z,49.3915
2024-03-12T02:47:55.448Z,49.3938
2024-03-12T02:48:57.199Z,49.3746
2024-03-12T02:49:59.042Z,49.4762
2024-03-12T02:51:00.875Z,49.5008
2024-03-12T02:52:02.924Z,49.5585
2024-03-12T02:53:04.517Z,49.4662
2024-03-12T02:54:06.494Z,49.5031
2024-03-12T02:55:08.394Z,49.5408
2024-03-12T02:56:10.029Z,49.6000
2024-03-12T02:57:11.835Z,49.5692
2024-03-12T02:58:13.716Z,49.5800
2024-03-12T02:59:15.505Z,49.6123
2024-03-12T03:00:17.349Z,49.5946
2024-03-12T03:01:19.347Z,49.6408
2024-03-12T03:02:21.100Z,49.6485
2024-03-12T03:03:22.978Z,49.7654
2024-03-12T03:04:24.755Z,49.6977
2024-03-12T03:05:26.572Z,49.7169
2024-03-12T03:06:28.452Z,49.7385
2024-03-12T03:07:30.264Z,49.7908
2024-03-12T03:08:32.118Z,49.7754
2024-03-12T03:09:34.022Z,49.7692
2024-03-12T03:10:35.763Z,49.7600
2024-03-12T03:11:37.637Z,49.8115
2024-03-12T03:12:39.473Z,49.7785
2024-03-12T03:13:41.238Z,49.8377
2024-03-12T03:14:43.109Z,49.7869
2024-03-12T03:15:44.947Z,49.8815
2024-03-12T03:16:46.754Z,49.8977
2024-03-12T03:17:48.595Z,49.8754
2024-03-12T03:18:50.443Z,49.8423
2024-03-12T03:19:52.245Z,49.9469
2024-03-12T03:20:54.104Z,49.9285
2024-03-12T03:21:55.981Z,49.9462
2024-03-12T03:22:57.765Z,49.9369
2024-03-12T03:23:59.573Z,50.0254
2024-03-12T03:25:01.544Z,50.0723
2024-03-12T03:26:03.262Z,50.0523
2024-03-12T03:27:05.094Z,50.1346
2024-03-12T03:28:06.940Z,50.0931
2024-03-12T03:29:08.753Z,50.0554
2024-03-12T03:30:10.568Z,50.0646
2024-03-12T03:31:12.503Z,50.1500
2024-03-12T03:32:14.269Z,50.1446
2024-03-12T03:33:16.147Z,50.1585
2024-03-12T03:34:17.987Z,50.2000
2024-03-12T03:35:20.019Z,50.1438
2024-03-12T03:36:21.605Z,50.1869
2024-03-12T03:37:23.425Z,50.2662
2024-03-12T03:38:25.253Z,50.2785
2024-03-12T03:39:27.146Z,50.2800
2024-03-12T03:40:28.955Z,50.3138
2024-03-12T03:41:30.756Z,50.3192
2024-03-12T03:42:32.616Z,50.3485
2024-03-12T03:43:34.409Z,50.3131
2024-03-12T03:44:36.273Z,50.4900
2024-03-12T03:45:38.084Z,50.3554
2024-03-12T03:46:39.914Z,50.3677
2024-03-12T03:47:41.883Z,50.4077
2024-03-12T03:48:43.608Z,50.4585
2024-03-12T03:49:45.407Z,50.3523
2024-03-12T03:50:47.272Z,50.3431
2024-03-12T03:51:49.099Z,50.4031
2024-03-12T03:52:50.930Z,50.4969
2024-03-12T03:53:52.739Z,50.4077
2024-03-12T03:54:54.631Z,50.4715
2024-03-12T03:55:56.416Z,50.4885
2024-03-12T03:56:58.290Z,50.4715
2024-03-12T03:58:00.169Z,50.5054
2024-03-12T03:59:01.942Z,50.6954
2024-03-12T04:00:03.742Z,50.5538
2024-03-12T04:01:05.704Z,50.5592
2024-03-12T04:02:07.390Z,50.5562
2024-03-12T04:03:09.243Z,50.5762
2024-03-12T04:04:11.119Z,50.6177
2024-03-12T04:05:12.898Z,50.5792
2024-03-12T04:06:14.713Z,50.6054
2024-03-12T04:07:16.600Z,50.5885
2024-03-12T04:08:18.381Z,50.5946
2024-03-12T04:09:20.234Z,50.6323
2024-03-12T04:10:22.036Z,50.7000
2024-03-12T04:11:23.969Z,50.6292
2024-03-12T04:12:25.733Z,50.6362
2024-03-12T04:13:27.549Z,50.6885
2024-03-12T04:14:29.368Z,50.6854
2024-03-12T04:15:31.248Z,50.6808
2024-03-12T04:16:33.027Z,50.7577
2024-03-12T04:17:34.923Z,50.7146
2024-03-12T04:18:37.673Z,50.7531
2024-03-12T04:19:38.542Z,50.8123
2024-03-12T04:20:40.369Z,50.7708
2024-03-12T04:21:42.305Z,50.8031
2024-03-12T04:22:44.028Z,50.8662
2024-03-12T04:23:45.883Z,50.8415
2024-03-12T04:24:47.776Z,50.8062
2024-03-12T04:25:49.546Z,50.8077
2024-03-12T04:26:51.348Z,50.8008
2024-03-12T04:27:53.213Z,50.8238
2024-03-12T04:28:55.037Z,50.8015
2024-03-12T04:29:56.870Z,50.8746
2024-03-12T04:30:58.706Z,50.9131
2024-03-12T04:32:00.548Z,50.8908
2024-03-12T04:33:02.412Z,50.9331
2024-03-12T04:34:04.298Z,50.9638
2024-03-12T04:35:06.054Z,51.0015
2024-03-12T04:36:07.857Z,51.0000
2024-03-12T04:37:09.768Z,51.0154
2024-03-12T04:38:13.844Z,51.0285
2024-03-12T04:39:13.429Z,51.0369
2024-03-12T04:40:15.393Z,51.0423
2024-03-12T04:41:16.998Z,51.0254
2024-03-12T04:42:18.829Z,51.0200
2024-03-12T04:43:20.714Z,51.0077
2024-03-12T04:44:22.504Z,51.0723
2024-03-12T04:45:24.316Z,51.1246
2024-03-12T04:46:26.163Z,51.2023
2024-03-12T04:47:28.104Z,51.1823
2024-03-12T04:48:29.880Z,51.1823
2024-03-12T04:49:31.641Z,51.1854
2024-03-12T04:50:33.506Z,51.2338
2024-03-12T04:51:35.350Z,51.2131
2024-03-12T04:52:37.180Z,51.2208
2024-03-12T04:53:39.003Z,51.2154
2024-03-12T04:54:40.876Z,51.2292
2024-03-12T04:55:42.661Z,51.2315
2024-03-12T04:56:44.506Z,51.2531
2024-03-12T04:57:46.343Z,51.3000
2024-03-12T04:58:48.155Z,51.2477
2024-03-12T04:59:49.980Z,51.2254
2024-03-12T05:00:51.913Z,51.2669
2024-03-12T05:01:53.811Z,51.2869
2024-03-12T05:02:55.495Z,51.2654
2024-03-12T05:03:59.706Z,51.2746
2024-03-12T05:04:59.163Z,51.3592
2024-03-12T05:06:00.971Z,51.3638
2024-03-12T05:07:02.886Z,51.3254
2024-03-12T05:08:04.644Z,51.3438
2024-03-12T05:09:06.507Z,51.3969
2024-03-12T05:10:08.439Z,51.3677
2024-03-12T05:11:10.230Z,51.3769
2024-03-12T05:12:11.952Z,51.4208
2024-03-12T05:13:13.835Z,51.3954
2024-03-12T05:14:15.628Z,51.4546
2024-03-12T05:15:17.509Z,51.4438
2024-03-12T05:16:20.445Z,51.4492
2024-03-12T05:17:21.134Z,51.4862
2024-03-12T05:18:22.951Z,51.4862
2024-03-12T05:19:24.833Z,51.4962
2024-03-12T05:20:26.732Z,51.4746
2024-03-12T05:21:31.540Z,51.4977
2024-03-12T05:22:30.299Z,51.5177
2024-03-12T05:23:32.149Z,51.5792
2024-03-12T05:24:34.046Z,51.5508
2024-03-12T05:25:35.829Z,51.5585
2024-03-12T05:26:37.790Z,51.5238
2024-03-12T05:27:39.730Z,51.5723
2024-03-12T05:28:41.323Z,51.5692
2024-03-12T05:29:43.177Z,51.6215
2024-03-12T05:30:45.014Z,51.6538
2024-03-12T05:31:46.870Z,51.6231
2024-03-12T05:32:49.056Z,51.6600
2024-03-12T05:33:50.587Z,51.6815
2024-03-12T05:34:52.335Z,51.7462
2024-03-12T05:35:54.192Z,51.6846
2024-03-12T05:36:56.027Z,51.7169
2024-03-12T05:37:57.854Z,51.7331
2024-03-12T05:38:59.694Z,51.7646
2024-03-12T05:40:01.719Z,51.7415
2024-03-12T05:41:03.341Z,51.7085
2024-03-12T05:42:05.209Z,51.7577
2024-03-12T05:43:07.006Z,51.7246
2024-03-12T05:44:08.851Z,51.7323
2024-03-12T05:45:10.676Z,51.7085
2024-03-12T05:46:12.619Z,51.7338
2024-03-12T05:47:14.341Z,51.7938
2024-03-12T05:48:16.179Z,51.7892
2024-03-12T05:49:18.104Z,51.8192
2024-03-12T05:50:19.856Z,51.8269
2024-03-12T05:51:21.743Z,51.8977
2024-03-12T05:52:23.529Z,51.8277
2024-03-12T05:53:25.342Z,51.8323
2024-03-12T05:54:27.221Z,51.8254
2024-03-12T05:55:29.014Z,51.8354
2024-03-12T05:56:30.851Z,51.8492
2024-03-12T05:57:32.721Z,51.8538
2024-03-12T05:58:34.508Z,51.8531
2024-03-12T05:59:36.341Z,51.8977
2024-03-12T06:00:38.194Z,51.8454
2024-03-12T06:01:40.166Z,51.8900
2024-03-12T06:02:41.822Z,51.8931
2024-03-12T06:03:43.686Z,51.9192
2024-03-12T06:04:45.489Z,51.8754
2024-03-12T06:05:47.313Z,51.9323
2024-03-12T06:06:49.182Z,51.9246
2024-03-12T06:07:50.977Z,51.8969
2024-03-12T06:08:52.859Z,51.8700
2024-03-12T06:09:54.700Z,51.8654
2024-03-12T06:10:56.467Z,51.9208
2024-03-12T06:11:58.314Z,51.9246
2024-03-12T06:13:00.181Z,51.9300
2024-03-12T06:14:04.360Z,51.9285
2024-03-12T06:15:03.789Z,51.8838
2024-03-12T06:16:05.674Z,51.9331
2024-03-12T06:17:07.462Z,51.9246
2024-03-12T06:18:09.289Z,51.9631
2024-03-12T06:19:11.280Z,51.9408
2024-03-12T06:20:12.931Z,52.0023
2024-03-12T06:21:14.767Z,51.9469
2024-03-12T06:22:16.617Z,52.0038
2024-03-12T06:23:18.419Z,51.9946
2024-03-12T06:24:20.255Z,52.0608
2024-03-12T06:25:22.156Z,52.1223
2024-03-12T06:26:23.946Z,52.1615
2024-03-12T06:27:25.922Z,52.1738
2024-03-12T06:28:27.569Z,52.1346
2024-03-12T06:29:29.433Z,52.1815
2024-03-12T06:30:31.282Z,52.1262
2024-03-12T06:31:33.111Z,52.2092
2024-03-12T06:32:34.952Z,52.3185
2024-03-12T06:33:36.919Z,52.3069
2024-03-12T06:34:38.583Z,52.3762
2024-03-12T06:35:40.445Z,52.4654
2024-03-12T06:36:42.296Z,52.5169
2024-03-12T06:37:44.112Z,52.5554
2024-03-12T06:38:45.919Z,52.5285
2024-03-12T06:39:47.942Z,52.5731
2024-03-12T06:40:49.679Z,52.8846
2024-03-12T06:41:51.455Z,53.1823
2024-03-12T06:42:53.326Z,53.1700
2024-03-12T06:43:55.116Z,53.5508
2024-03-12T06:44:56.951Z,53.6992
2024-03-12T06:45:58.816Z,53.9223
2024-03-12T06:47:00.612Z,54.0485
2024-03-12T06:48:02.494Z,53.7869
2024-03-12T06:49:04.314Z,54.2777
2024-03-12T06:50:08.848Z,54.8769
2024-03-12T06:51:07.954Z,55.2923
2024-03-12T06:52:09.940Z,55.4031
2024-03-12T06:53:11.594Z,55.5115
2024-03-12T06:54:13.459Z,55.4615
2024-03-12T06:55:17.068Z,55.5823
2024-03-12T06:56:17.126Z,55.5415
2024-03-12T06:57:18.932Z,55.4000
2024-03-12T06:58:21.021Z,55.6215
2024-03-12T06:59:22.602Z,55.3469
2024-03-12T07:00:24.474Z,55.9485
2024-03-12T07:01:26.342Z,55.7700
2024-03-12T07:02:28.143Z,55.7962
2024-03-12T07:03:29.983Z,56.0108
2024-03-12T07:04:31.856Z,56.0069
2024-03-12T07:05:33.709Z,53.1723
2024-03-12T07:06:35.543Z,44.8077
2024-03-12T07:07:37.358Z,41.6054
2024-03-12T07:08:39.193Z,40.4131
2024-03-12T07:09:41.030Z,39.0492
2024-03-12T07:10:42.894Z,38.7554
2024-03-12T07:11:44.688Z,38.6415
2024-03-12T07:12:46.543Z,39.1915
2024-03-12T07:13:48.362Z,39.6408
2024-03-12T07:14:50.201Z,40.1238
2024-03-12T07:15:52.104Z,41.2246
2024-03-12T07:16:53.875Z,42.8746
2024-03-12T07:17:55.782Z,42.3223
2024-03-12T07:18:57.561Z,41.8077
2024-03-12T07:19:59.385Z,41.3723
2024-03-12T07:21:01.225Z,41.3262
2024-03-12T07:22:03.122Z,41.6238
2024-03-12T07:23:04.886Z,41.7208
2024-03-12T07:24:06.690Z,41.6792
2024-03-12T07:25:08.696Z,41.7585
2024-03-12T07:26:10.361Z,41.7400
2024-03-12T07:27:12.222Z,41.7815
2024-03-12T07:28:14.336Z,41.7523
2024-03-12T07:29:15.897Z,41.8938
2024-03-12T07:30:17.718Z,42.3985
2024-03-12T07:31:19.647Z,41.9877
2024-03-12T07:32:21.381Z,41.7831
2024-03-12T07:33:23.275Z,42.2531
2024-03-12T07:34:25.172Z,42.3838
2024-03-12T07:35:26.902Z,42.7854
2024-03-12T07:36:28.749Z,42.7431
2024-03-12T07:37:30.697Z,43.0685
2024-03-12T07:38:32.442Z,43.4415
2024-03-12T07:39:34.264Z,43.4146
2024-03-12T07:40:36.080Z,43.6677
2024-03-12T07:41:37.920Z,43.7269
2024-03-12T07:42:39.775Z,43.9577
2024-03-12T07:43:41.620Z,44.2908
2024-03-12T07:44:43.427Z,44.3785
2024-03-12T07:45:45.368Z,44.3108
2024-03-12T07:46:47.081Z,44.4277
2024-03-12T07:47:48.945Z,44.5300
2024-03-12T07:48:50.787Z,44.8192
2024-03-12T07:49:52.614Z,45.0931
2024-03-12T07:50:54.521Z,44.8508
2024-03-12T07:51:56.363Z,44.9862
2024-03-12T07:52:58.105Z,45.0300
2024-03-12T07:53:59.956Z,45.1800
2024-03-12T07:55:01.849Z,45.2469
2024-03-12T07:56:03.622Z,45.3554
2024-03-12T07:57:05.482Z,45.4792
2024-03-12T07:58:07.387Z,45.5623
2024-03-12T07:59:09.138Z,45.6508
2024-03-12T08:00:10.988Z,45.9315
2024-03-12T08:01:12.949Z,45.9738
2024-03-12T08:02:14.641Z,45.9777
2024-03-12T08:03:16.496Z,45.9246
2024-03-12T08:04:18.376Z,46.3262
2024-03-12T08:05:20.207Z,46.1608
2024-03-12T08:06:21.990Z,46.1562
2024-03-12T08:07:23.860Z,46.3723
2024-03-12T08:08:25.657Z,46.4931
2024-03-12T08:09:27.568Z,46.6554
2024-03-12T08:10:29.365Z,46.8046
2024-03-12T08:11:31.213Z,46.6031
2024-03-12T08:12:33.022Z,46.6585
2024-03-12T08:13:34.849Z,46.7462
2024-03-12T08:14:36.672Z,46.8223
2024-03-12T08:15:38.553Z,47.0238
2024-03-12T08:16:40.380Z,47.0638
2024-03-12T08:17:44.097Z,47.2931
2024-03-12T08:18:44.073Z,47.3577
2024-03-12T08:19:46.081Z,47.2415
2024-03-12T08:20:47.694Z,47.3715
2024-03-12T08:21:49.550Z,47.4385
2024-03-12T08:22:51.414Z,47.5123
2024-03-12T08:23:53.198Z,47.4654
2024-03-12T08:24:55.066Z,47.6285
2024-03-12T08:26:00.470Z,47.7431
2024-03-12T08:26:58.736Z,47.5338
2024-03-12T08:28:00.648Z,47.5931
2024-03-12T08:29:02.363Z,47.7838
2024-03-12T08:30:04.201Z,47.8646
2024-03-12T08:31:11.555Z,47.8962
2024-03-12T08:32:08.096Z,47.8592
2024-03-12T08:33:09.728Z,47.8523
2024-03-12T08:34:11.588Z,48.0146
2024-03-12T08:35:13.355Z,48.0015
2024-03-12T08:36:15.221Z,48.0408
2024-03-12T08:37:17.104Z,48.0738
2024-03-12T08:38:18.883Z,48.1669
2024-03-12T08:39:20.704Z,48.3123
2024-03-12T08:40:22.601Z,48.3954
2024-03-12T08:41:24.359Z,48.5992
2024-03-12T08:42:26.213Z,48.4546
2024-03-12T08:43:28.049Z,48.1192
2024-03-12T08:44:29.910Z,48.2746
2024-03-12T08:45:31.700Z,48.2000
2024-03-12T08:46:33.541Z,48.1769
2024-03-12T08:47:35.379Z,47.8962
2024-03-12T08:48:37.280Z,48.0731
2024-03-12T08:49:39.061Z,47.6338
2024-03-12T08:50:40.902Z,47.6300
2024-03-12T08:51:42.728Z,47.6262
2024-03-12T08:52:44.545Z,48.1162
2024-03-12T08:53:46.381Z,48.2669
2024-03-12T08:54:48.322Z,48.3585
2024-03-12T08:55:50.034Z,48.3538
2024-03-12T08:56:51.898Z,48.3338
2024-03-12T08:57:53.738Z,48.2669
2024-03-12T08:58:55.556Z,48.2654
2024-03-12T08:59:57.382Z,48.2769
2024-03-12T09:00:59.282Z,48.2923
2024-03-12T09:02:01.452Z,48.3077
2024-03-12T09:03:02.931Z,48.2785
2024-03-12T09:04:04.939Z,48.1938
2024-03-12T09:05:06.573Z,48.2300
2024-03-12T09:06:08.392Z,48.2015
2024-03-12T09:07:10.332Z,48.3215
2024-03-12T09:08:12.031Z,48.3685
2024-03-12T09:09:13.886Z,48.4392
2024-03-12T09:10:15.834Z,48.5531
2024-03-12T09:11:17.595Z,48.5669
2024-03-12T09:12:19.369Z,48.6262
2024-03-12T09:13:21.231Z,48.6392
2024-03-12T09:14:23.032Z,48.6815
2024-03-12T09:15:26.250Z,48.7238
2024-03-12T09:16:26.731Z,48.7154
2024-03-12T09:17:28.672Z,48.7531
2024-03-12T09:18:30.418Z,48.8369
2024-03-12T09:19:32.287Z,48.8869
2024-03-12T09:20:34.011Z,48.8915
2024-03-12T09:21:35.992Z,49.0038
2024-03-12T09:22:37.693Z,48.9931
2024-03-12T09:23:45.406Z,49.0500
2024-03-12T09:24:41.373Z,49.1085
2024-03-12T09:25:43.202Z,49.1108
2024-03-12T09:26:45.017Z,49.1523
2024-03-12T09:27:46.879Z,49.1623
2024-03-12T09:28:48.650Z,49.1815
2024-03-12T09:29:50.599Z,49.2638
2024-03-12T09:30:52.385Z,49.3454
2024-03-12T09:31:54.177Z,49.3954
2024-03-12T09:32:56.033Z,49.3046
2024-03-12T09:33:58.084Z,49.3577
2024-03-12T09:34:59.658Z,49.3900
2024-03-12T09:36:01.562Z,49.4746
2024-03-12T09:37:03.370Z,49.5277
2024-03-12T09:38:05.174Z,49.5362
2024-03-12T09:39:06.985Z,49.5546
2024-03-12T09:40:08.932Z,49.6038
2024-03-12T09:41:10.650Z,49.6608
2024-03-12T09:42:12.534Z,49.6454
2024-03-12T09:43:14.415Z,49.6777
2024-03-12T09:44:16.251Z,49.6308
2024-03-12T09:45:18.026Z,49.7115
2024-03-12T09:46:19.899Z,49.7223
2024-03-12T09:47:21.665Z,49.7415
2024-03-12T09:48:23.530Z,49.7862
2024-03-12T09:49:25.344Z,49.8185
2024-03-12T09:50:27.211Z,49.7815
2024-03-12T09:51:29.017Z,49.8138
2024-03-12T09:52:30.874Z,49.6200
2024-03-12T09:53:32.672Z,49.6485
2024-03-12T09:54:34.564Z,49.6408
2024-03-12T09:55:36.434Z,49.5969
2024-03-12T09:56:38.194Z,49.6162
2024-03-12T09:57:40.075Z,49.7592
2024-03-12T09:58:41.867Z,49.8462
2024-03-12T09:59:43.677Z,49.8938
2024-03-12T10:00:45.537Z,49.8285
2024-03-12T10:01:48.105Z,49.8354
2024-03-12T10:02:49.204Z,49.8600
2024-03-12T10:03:51.081Z,49.8838
2024-03-12T10:04:52.888Z,49.9392
2024-03-12T10:05:54.683Z,49.9338
2024-03-12T10:06:56.557Z,49.9192
2024-03-12T10:07:58.347Z,49.9469
2024-03-12T10:09:00.219Z,49.9192
2024-03-12T10:10:02.131Z,49.9300
2024-03-12T10:11:03.948Z,49.8962
2024-03-12T10:12:05.690Z,49.9200
2024-03-12T10:13:07.618Z,49.9800
2024-03-12T10:14:09.383Z,50.0646
2024-03-12T10:15:11.316Z,50.0208
2024-03-12T10:16:13.128Z,50.0692
2024-03-12T10:17:14.886Z,50.1638
2024-03-12T10:18:16.702Z,50.0000
2024-03-12T10:19:18.601Z,50.0246
2024-03-12T10:20:20.363Z,50.1331
2024-03-12T10:21:22.220Z,50.2538
2024-03-12T10:22:24.121Z,50.2269
2024-03-12T10:23:25.896Z,50.2300
2024-03-12T10:24:27.694Z,50.3131
2024-03-12T10:25:29.574Z,50.3415
2024-03-12T10:26:31.366Z,50.2838
2024-03-12T10:27:33.277Z,50.3008
2024-03-12T10:28:35.065Z,50.3023
2024-03-12T10:29:36.889Z,50.3777
2024-03-12T10:30:38.756Z,50.4477
2024-03-12T10:31:40.554Z,50.4523
2024-03-12T10:32:42.386Z,50.5523
2024-03-12T10:33:44.340Z,50.5023
2024-03-12T10:34:46.062Z,50.4669
2024-03-12T10:35:47.896Z,50.4200
2024-03-12T10:36:49.738Z,50.4800
2024-03-12T10:37:51.558Z,50.5838
2024-03-12T10:38:53.409Z,50.6669
2024-03-12T10:39:55.235Z,50.6423
2024-03-12T10:40:57.166Z,50.6985
2024-03-12T10:41:58.882Z,50.5777
2024-03-12T10:43:00.827Z,50.7354
2024-03-12T10:44:04.815Z,50.7638
2024-03-12T10:45:04.390Z,50.8515
2024-03-12T10:46:06.299Z,50.8108
2024-03-12T10:47:08.050Z,50.9215
2024-03-12T10:48:09.906Z,50.9600
2024-03-12T10:49:11.765Z,50.9400
2024-03-12T10:50:13.704Z,50.8492
2024-03-12T10:51:15.368Z,50.8569
2024-03-12T10:52:17.325Z,50.8438
2024-03-12T10:53:19.038Z,50.8838
2024-03-12T10:54:20.898Z,51.0208
2024-03-12T10:55:22.731Z,50.9377
2024-03-12T10:56:24.607Z,50.9146
2024-03-12T10:57:26.364Z,50.8269
2024-03-12T10:58:28.206Z,50.9238
2024-03-12T10:59:30.042Z,50.9154
2024-03-12T11:00:32.007Z,50.9154
2024-03-12T11:01:33.806Z,50.9492
2024-03-12T11:02:35.534Z,50.9385
2024-03-12T11:03:37.390Z,50.9000
2024-03-12T11:04:39.208Z,50.9146
2024-03-12T11:05:41.018Z,50.8108
2024-03-12T11:06:42.889Z,50.8869
2024-03-12T11:07:44.699Z,50.8762
2024-03-12T11:08:46.607Z,50.9608
2024-03-12T11:09:48.418Z,51.0992
2024-03-12T11:10:50.285Z,51.0931
2024-03-12T11:11:52.098Z,51.1746
2024-03-12T11:12:53.962Z,51.1400
2024-03-12T11:13:55.724Z,51.2092
2024-03-12T11:14:57.592Z,51.1100
2024-03-12T11:15:59.414Z,51.1431
2024-03-12T11:17:01.237Z,51.2477
2024-03-12T11:18:03.121Z,51.1708
2024-03-12T11:19:04.957Z,51.3600
2024-03-12T11:20:06.717Z,51.4385
2024-03-12T11:21:08.575Z,51.2900
2024-03-12T11:22:10.392Z,51.2985
2024-03-12T11:23:12.348Z,51.4146
2024-03-12T11:24:14.067Z,51.3746
2024-03-12T11:25:15.949Z,51.3323
2024-03-12T11:26:17.694Z,51.3177
2024-03-12T11:27:19.555Z,51.4800
2024-03-12T11:28:21.373Z,51.4100
2024-03-12T11:29:23.226Z,51.3762
2024-03-12T11:30:25.110Z,51.4846
2024-03-12T11:31:26.888Z,51.4262
2024-03-12T11:32:28.707Z,51.4377
2024-03-12T11:33:30.561Z,51.4215
2024-03-12T11:34:32.349Z,51.5692
2024-03-12T11:35:34.220Z,51.6008
2024-03-12T11:36:36.083Z,51.4892
2024-03-12T11:37:37.863Z,51.4731
2024-03-12T11:38:39.678Z,51.5562
2024-03-12T11:39:41.639Z,51.5569
2024-03-12T11:40:43.374Z,51.6169
2024-03-12T11:41:45.203Z,51.5323
2024-03-12T11:42:47.158Z,51.5054
2024-03-12T11:43:48.984Z,51.5146
2024-03-12T11:44:51.010Z,51.5408
2024-03-12T11:45:52.579Z,51.5985
2024-03-12T11:46:54.374Z,51.5592
2024-03-12T11:47:56.261Z,51.5046
2024-03-12T11:48:58.055Z,51.5838
2024-03-12T11:50:03.077Z,51.5677
2024-03-12T11:51:01.705Z,51.5915
2024-03-12T11:52:03.603Z,51.6162
2024-03-12T11:53:05.369Z,51.6485
2024-03-12T11:54:07.194Z,51.6115
2024-03-12T11:55:09.139Z,51.6369
2024-03-12T11:56:10.868Z,51.6408
2024-03-12T11:57:12.665Z,51.7554
2024-03-12T11:58:14.551Z,51.7046
2024-03-12T11:59:20.056Z,51.6262
2024-03-12T12:00:18.197Z,51.6585
2024-03-12T12:01:20.166Z,51.7223
2024-03-12T12:02:22.105Z,51.7654
2024-03-12T12:03:23.658Z,51.7215
2024-03-12T12:04:25.581Z,51.7208
2024-03-12T12:05:27.320Z,51.7354
2024-03-12T12:06:29.286Z,51.7800
2024-03-12T12:07:30.996Z,51.8846
2024-03-12T12:08:35.766Z,51.8554
2024-03-12T12:09:34.705Z,51.7654
2024-03-12T12:10:36.491Z,51.8623
2024-03-12T12:11:39.118Z,51.8377
2024-03-12T12:12:40.178Z,51.8469
2024-03-12T12:13:41.994Z,51.8815
2024-03-12T12:14:43.829Z,51.8446
2024-03-12T12:15:45.656Z,51.7531
2024-03-12T12:16:48.843Z,51.7731
2024-03-12T12:17:49.307Z,51.8362
2024-03-12T12:18:51.163Z,51.8185
2024-03-12T12:19:53.037Z,51.8462
2024-03-12T12:20:54.796Z,51.9762
2024-03-12T12:21:56.653Z,51.9131
2024-03-12T12:22:58.472Z,51.8585
2024-03-12T12:24:00.559Z,51.8677
2024-03-12T12:25:02.195Z,51.8838
2024-03-12T12:26:04.002Z,51.9462
2024-03-12T12:27:05.812Z,51.9500
2024-03-12T12:28:07.724Z,51.9046